createdAt,value
2019-04-20T00:03:34.659Z,9.07
2019-04-20T00:06:42.931Z,7.50
2019-04-20T00:09:50.195Z,10.37
2019-04-20T00:13:09.047Z,8.50
2019-04-20T00:16:04.107Z,5.97
2019-04-20T00:26:10.233Z,6.97
2019-04-20T00:29:25.451Z,8.50
2019-04-20T00:35:33.874Z,6.77
2019-04-20T00:38:48.371Z,7.53
2019-04-20T00:41:58.979Z,5.87
2019-04-20T00:45:10.094Z,7.47
2019-04-20T00:48:23.894Z,5.10
2019-04-20T00:51:36.681Z,6.40
2019-04-20T00:54:32.464Z,6.77
2019-04-20T00:57:48.554Z,7.37
2019-04-20T01:01:15.331Z,7.13
2019-04-20T01:04:20.221Z,7.10
2019-04-20T01:10:28.371Z,5.13
2019-04-20T01:13:42.138Z,7.90
2019-04-20T01:16:52.551Z,7.33
2019-04-20T01:19:48.879Z,11.47
2019-04-20T01:22:54.628Z,7.43
2019-04-20T01:26:01.450Z,8.57
2019-04-20T01:29:09.142Z,6.93
2019-04-20T01:32:10.484Z,4.83
2019-04-20T01:35:18.086Z,6.83
2019-04-20T01:38:21.074Z,8.00
2019-04-20T01:41:07.392Z,6.03
2019-04-20T01:44:09.194Z,8.87
2019-04-20T01:47:09.877Z,14.67
2019-04-20T01:50:22.711Z,8.20
2019-04-20T02:00:17.467Z,5.37
2019-04-20T02:03:43.360Z,6.90
2019-04-20T02:06:28.627Z,8.13
2019-04-20T02:09:43.325Z,4.97
2019-04-20T02:12:50.281Z,5.10
2019-04-20T02:15:59.831Z,7.67
2019-04-20T02:19:23.054Z,7.63
2019-04-20T02:22:38.246Z,7.90
2019-04-20T02:25:26.883Z,6.07
2019-04-20T02:29:03.267Z,5.73
2019-04-20T02:35:52.795Z,9.43
2019-04-20T02:39:30.536Z,5.13
2019-04-20T02:42:36.624Z,5.60
2019-04-20T02:45:40.374Z,8.43
2019-04-20T02:48:48.204Z,7.63
2019-04-20T02:51:59.740Z,6.47
2019-04-20T02:58:07.316Z,5.57
2019-04-20T03:01:32.138Z,6.43
2019-04-20T03:04:30.389Z,9.60
2019-04-20T03:07:50.857Z,5.77
2019-04-20T03:10:50.833Z,6.53
2019-04-20T03:13:50.340Z,6.70
2019-04-20T03:17:08.684Z,7.03
2019-04-20T03:19:57.412Z,7.97
2019-04-20T03:23:26.837Z,13.40
2019-04-20T03:26:13.842Z,8.70
2019-04-20T03:29:37.295Z,5.90
2019-04-20T03:36:23.714Z,6.43
2019-04-20T03:39:18.060Z,6.03
2019-04-20T03:42:12.475Z,5.30
2019-04-20T03:45:23.058Z,6.97
2019-04-20T03:48:46.756Z,5.93
2019-04-20T03:55:34.160Z,6.17
2019-04-20T03:58:55.392Z,5.97
2019-04-20T04:05:35.761Z,10.60
2019-04-20T04:08:39.531Z,5.93
2019-04-20T04:11:57.598Z,7.93
2019-04-20T04:14:53.399Z,5.50
2019-04-20T04:18:07.406Z,5.20
2019-04-20T04:21:10.050Z,5.80
2019-04-20T04:24:19.967Z,6.60
2019-04-20T04:27:36.409Z,6.30
2019-04-20T04:30:28.349Z,7.37
2019-04-20T04:36:21.299Z,5.17
2019-04-20T04:39:35.496Z,6.53
2019-04-20T04:42:52.505Z,5.67
2019-04-20T04:45:38.597Z,6.57
2019-04-20T04:48:50.771Z,7.03
2019-04-20T04:52:05.205Z,7.43
2019-04-20T04:55:38.098Z,5.37
2019-04-20T04:58:38.365Z,5.80
2019-04-20T05:01:51.441Z,6.33
2019-04-20T05:05:38.165Z,7.33
2019-04-20T05:08:17.578Z,6.13
2019-04-20T05:11:17.323Z,5.53
2019-04-20T05:14:38.751Z,5.70
2019-04-20T05:17:57.780Z,6.40
2019-04-20T05:21:01.563Z,4.70
2019-04-20T05:24:09.985Z,7.63
2019-04-20T05:27:37.581Z,7.67
2019-04-20T05:30:18.073Z,8.50
2019-04-20T05:33:28.151Z,10.10
2019-04-20T05:36:41.519Z,7.20
2019-04-20T05:39:44.491Z,7.63
2019-04-20T05:42:55.664Z,4.87
2019-04-20T05:45:50.503Z,7.87
2019-04-20T05:48:57.672Z,5.87
2019-04-20T05:52:07.741Z,7.63
2019-04-20T05:55:07.393Z,8.00
2019-04-20T05:58:10.045Z,9.03
2019-04-20T06:01:19.254Z,8.67
2019-04-20T06:04:07.465Z,4.90
2019-04-20T06:07:16.794Z,7.27
2019-04-20T06:10:20.819Z,9.37
2019-04-20T06:19:44.485Z,6.17
2019-04-20T06:27:08.256Z,4.27
2019-04-20T06:29:18.443Z,4.17
2019-04-20T06:32:50.974Z,5.67
2019-04-20T06:39:16.158Z,8.13
2019-04-20T06:42:21.968Z,4.23
2019-04-20T06:45:40.768Z,6.00
2019-04-20T06:48:49.957Z,5.20
2019-04-20T06:52:15.404Z,5.07
2019-04-20T06:58:43.805Z,4.80
2019-04-20T07:01:57.026Z,5.53
2019-04-20T07:04:57.937Z,7.47
2019-04-20T07:08:17.188Z,3.90
2019-04-20T07:11:21.279Z,4.33
2019-04-20T07:14:11.863Z,5.27
2019-04-20T07:17:58.981Z,4.00
2019-04-20T07:24:17.299Z,7.70
2019-04-20T07:27:19.636Z,5.97
2019-04-20T07:30:16.478Z,3.90
2019-04-20T07:33:28.494Z,4.97
2019-04-20T07:36:32.449Z,3.67
2019-04-20T07:39:33.141Z,5.93
2019-04-20T07:42:34.841Z,3.90
2019-04-20T07:45:35.157Z,5.60
2019-04-20T07:48:36.309Z,8.77
2019-04-20T07:51:27.798Z,8.23
2019-04-20T07:54:53.830Z,7.87
2019-04-20T07:57:41.910Z,5.93
2019-04-20T08:04:01.406Z,8.27
2019-04-20T08:06:52.804Z,6.03
2019-04-20T08:09:53.274Z,4.37
2019-04-20T08:13:19.600Z,4.20
2019-04-20T08:16:11.594Z,5.90
2019-04-20T08:19:12.234Z,6.10
2019-04-20T08:22:19.796Z,5.97
2019-04-20T08:25:12.571Z,10.33
2019-04-20T08:28:13.661Z,7.27
2019-04-20T08:34:51.446Z,6.80
2019-04-20T08:38:05.775Z,6.67
2019-04-20T08:40:53.562Z,13.17
2019-04-20T08:43:58.471Z,7.60
2019-04-20T08:47:12.086Z,8.80
2019-04-20T08:53:15.671Z,7.23
2019-04-20T08:56:00.260Z,7.20
2019-04-20T08:58:50.742Z,4.77
2019-04-20T09:01:53.427Z,6.23
2019-04-20T09:05:02.524Z,8.77
2019-04-20T09:08:05.645Z,6.80
2019-04-20T09:11:16.344Z,5.30
2019-04-20T09:14:22.067Z,6.57
2019-04-20T09:17:50.634Z,9.63
2019-04-20T09:20:52.668Z,4.93
2019-04-20T09:24:14.582Z,5.57
2019-04-20T09:27:08.893Z,8.47
2019-04-20T09:30:09.438Z,7.30
2019-04-20T09:33:33.688Z,5.70
2019-04-20T09:40:03.360Z,5.93
2019-04-20T09:42:45.686Z,11.60
2019-04-20T09:45:50.443Z,6.90
2019-04-20T09:48:57.364Z,5.30
2019-04-20T09:52:09.688Z,4.27
2019-04-20T09:55:10.782Z,5.47
2019-04-20T09:58:12.647Z,8.03
2019-04-20T10:01:13.343Z,5.53
2019-04-20T10:04:03.482Z,4.57
2019-04-20T10:07:11.427Z,6.17
2019-04-20T10:10:17.919Z,5.77
2019-04-20T10:13:11.225Z,5.27
2019-04-20T10:16:11.901Z,4.97
2019-04-20T10:19:13.728Z,14.60
2019-04-20T10:22:14.920Z,5.40
2019-04-20T10:25:15.271Z,7.33
2019-04-20T10:28:16.021Z,5.47
2019-04-20T10:31:16.824Z,7.03
2019-04-20T10:34:18.053Z,7.17
2019-04-20T10:37:24.194Z,5.77
2019-04-20T10:40:39.102Z,7.97
2019-04-20T10:43:28.141Z,6.00
2019-04-20T10:46:28.920Z,7.17
2019-04-20T10:49:29.450Z,6.10
2019-04-20T10:52:30.085Z,5.13
2019-04-20T10:55:31.463Z,6.00
2019-04-20T10:58:33.649Z,5.17
2019-04-20T11:01:34.195Z,5.50
2019-04-20T11:04:34.858Z,7.03
2019-04-20T11:07:36.609Z,7.30
2019-04-20T11:10:52.067Z,6.60
2019-04-20T11:13:41.387Z,7.63
2019-04-20T11:16:42.414Z,9.63
2019-04-20T11:19:43.833Z,7.00
2019-04-20T11:22:46.362Z,6.10
2019-04-20T11:25:48.093Z,8.57
2019-04-20T11:28:48.626Z,9.30
2019-04-20T11:31:54.008Z,4.97
2019-04-20T11:34:53.288Z,9.33
2019-04-20T11:37:55.348Z,8.27
2019-04-20T11:41:07.356Z,8.80
2019-04-20T11:43:59.842Z,8.33
2019-04-20T11:47:00.862Z,6.70
2019-04-20T11:50:01.820Z,8.90
2019-04-20T11:53:03.512Z,8.03
2019-04-20T11:56:07.562Z,7.27
2019-04-20T11:59:07.321Z,5.93
2019-04-20T12:02:33.017Z,6.40
2019-04-20T12:05:37.554Z,10.87
2019-04-20T12:08:32.666Z,5.33
2019-04-20T12:11:52.817Z,5.30
2019-04-20T12:14:38.698Z,6.83
2019-04-20T12:17:40.054Z,5.37
2019-04-20T12:20:40.944Z,5.70
2019-04-20T12:23:42.339Z,7.40
2019-04-20T12:26:44.568Z,5.63
2019-04-20T12:29:45.740Z,5.23
2019-04-20T12:32:51.917Z,6.30
2019-04-20T12:35:50.089Z,7.33
2019-04-20T12:38:51.086Z,7.03
2019-04-20T12:41:56.740Z,8.40
2019-04-20T12:44:55.629Z,7.00
2019-04-20T12:47:57.594Z,7.07
2019-04-20T12:50:59.479Z,6.37
2019-04-20T12:54:00.624Z,6.40
2019-04-20T12:57:01.002Z,7.20
2019-04-20T13:00:01.748Z,6.10
2019-04-20T13:03:03.319Z,7.77
2019-04-20T13:06:04.148Z,9.50
2019-04-20T13:09:06.549Z,7.07
2019-04-20T13:12:15.488Z,6.83
2019-04-20T13:21:54.794Z,8.50
2019-04-20T13:24:56.941Z,10.67
2019-04-20T13:27:58.864Z,7.53
2019-04-20T13:31:00.274Z,5.23
2019-04-20T13:34:01.477Z,8.37
2019-04-20T13:37:02.182Z,10.17
2019-04-20T13:40:11.142Z,6.53
2019-04-20T13:43:20.144Z,5.33
2019-04-20T13:46:29.170Z,7.53
2019-04-20T13:49:38.822Z,6.93
2019-04-20T13:52:48.885Z,9.40
2019-04-20T13:55:59.103Z,5.83
2019-04-20T14:02:44.967Z,8.70
2019-04-20T14:05:53.045Z,5.27
2019-04-20T14:12:25.192Z,5.23
2019-04-20T14:15:28.993Z,6.40
2019-04-20T14:18:37.619Z,6.13
2019-04-20T14:21:38.592Z,6.90
2019-04-20T14:24:40.295Z,5.90
2019-04-20T14:27:40.946Z,6.37
2019-04-20T14:30:41.574Z,7.40
2019-04-20T14:33:42.366Z,5.00
2019-04-20T14:36:44.511Z,7.07
2019-04-20T14:39:46.163Z,6.30
2019-04-20T14:42:50.342Z,5.60
2019-04-20T14:45:50.486Z,6.50
2019-04-20T14:48:52.360Z,5.37
2019-04-20T14:51:55.814Z,4.83
2019-04-20T14:54:55.639Z,4.87
2019-04-20T14:57:57.883Z,6.20
2019-04-20T15:01:02.998Z,4.23
2019-04-20T15:04:09.040Z,6.80
2019-04-20T15:07:06.681Z,5.63
2019-04-20T15:10:08.994Z,5.40
2019-04-20T15:13:10.184Z,4.40
2019-04-20T15:16:12.865Z,4.07
2019-04-20T15:19:33.630Z,3.20
2019-04-20T15:22:41.372Z,5.83
2019-04-20T15:25:44.489Z,4.17
2019-04-20T15:28:46.245Z,4.20
2019-04-20T15:31:48.128Z,3.73
2019-04-20T15:34:48.999Z,7.00
2019-04-20T15:37:49.500Z,2.80
2019-04-20T15:40:51.105Z,2.10
2019-04-20T15:43:53.228Z,4.07
2019-04-20T15:46:55.157Z,5.53
2019-04-20T15:49:56.016Z,2.93
2019-04-20T15:52:57.329Z,6.07
2019-04-20T15:56:00.569Z,3.57
2019-04-20T15:59:02.313Z,2.20
2019-04-20T16:08:44.059Z,2.00
2019-04-20T16:11:44.920Z,2.70
2019-04-20T16:14:45.774Z,4.93
2019-04-20T16:17:50.861Z,4.53
2019-04-20T16:20:58.186Z,4.67
2019-04-20T16:27:39.620Z,1.77
2019-04-20T16:30:41.300Z,2.77
2019-04-20T16:33:42.334Z,3.23
2019-04-20T16:36:44.374Z,4.83
2019-04-20T16:39:46.475Z,4.63
2019-04-20T16:42:48.015Z,2.83
2019-04-20T16:45:48.806Z,8.40
2019-04-20T16:48:49.194Z,2.23
2019-04-20T16:51:49.618Z,4.47
2019-04-20T16:54:50.501Z,1.70
2019-04-20T16:57:51.692Z,4.20
2019-04-20T17:00:53.875Z,2.10
2019-04-20T17:04:05.040Z,1.70
2019-04-20T17:07:18.412Z,1.80
2019-04-20T17:10:20.202Z,2.33
2019-04-20T17:13:31.905Z,2.33
2019-04-20T17:16:24.110Z,4.90
2019-04-20T17:19:13.353Z,1.57
2019-04-20T17:22:21.625Z,2.77
2019-04-20T17:25:32.282Z,1.60
2019-04-20T17:35:34.709Z,1.87
2019-04-20T17:38:37.633Z,2.30
2019-04-20T17:42:00.424Z,3.00
2019-04-20T17:45:02.107Z,2.23
2019-04-20T17:48:17.653Z,2.10
2019-04-20T17:51:33.872Z,4.43
2019-04-20T18:01:13.590Z,1.90
2019-04-20T18:11:03.008Z,4.30
2019-04-20T18:14:24.227Z,3.70
2019-04-20T18:17:50.379Z,3.67
2019-04-20T18:24:05.277Z,3.30
2019-04-20T18:27:27.874Z,8.57
2019-04-20T18:30:26.829Z,7.83
2019-04-20T18:33:18.826Z,7.07
2019-04-20T18:36:23.412Z,9.17
2019-04-20T18:39:29.159Z,7.73
2019-04-20T18:42:29.147Z,9.60
2019-04-20T18:45:41.089Z,9.17
2019-04-20T18:48:48.357Z,11.33
2019-04-20T18:51:29.993Z,13.83
2019-04-20T18:54:35.275Z,11.90
2019-04-20T18:57:34.532Z,15.50
2019-04-20T19:00:41.785Z,19.73
2019-04-20T19:03:43.743Z,28.73
2019-04-20T19:06:41.403Z,30.10
2019-04-20T19:09:42.973Z,36.67
2019-04-20T19:12:53.505Z,40.67
2019-04-20T19:19:36.736Z,39.13
2019-04-20T19:22:28.364Z,32.03
2019-04-20T19:25:33.146Z,34.90
2019-04-20T19:28:39.265Z,25.87
2019-04-20T19:31:51.312Z,22.93
2019-04-20T19:34:52.618Z,25.67
2019-04-20T19:37:50.271Z,21.40
2019-04-20T19:40:52.223Z,19.37
2019-04-20T19:43:54.961Z,15.97
2019-04-20T19:47:15.607Z,14.93
2019-04-20T19:50:31.203Z,14.73
2019-04-20T19:53:36.210Z,15.47
2019-04-20T19:56:44.314Z,14.80
2019-04-20T19:59:40.287Z,13.63
2019-04-20T20:02:43.525Z,17.47
2019-04-20T20:05:54.756Z,14.77
2019-04-20T20:12:19.797Z,13.33
2019-04-20T20:15:34.068Z,16.07
2019-04-20T20:18:51.109Z,19.23
2019-04-20T20:21:55.488Z,22.83
2019-04-20T20:24:43.147Z,23.13
2019-04-20T20:27:52.499Z,27.03
2019-04-20T20:30:56.905Z,30.43
2019-04-20T20:34:03.016Z,30.57
2019-04-20T20:36:59.818Z,27.33
2019-04-20T20:40:07.621Z,43.53
2019-04-20T20:43:07.267Z,40.00
2019-04-20T20:46:14.892Z,27.47
2019-04-20T20:49:25.465Z,25.40
2019-04-20T20:52:26.315Z,25.53
2019-04-20T20:55:22.884Z,20.13
2019-04-20T20:58:18.210Z,23.70
2019-04-20T21:01:20.462Z,23.37
2019-04-20T21:04:17.528Z,29.50
2019-04-20T21:07:18.794Z,25.07
2019-04-20T21:10:25.890Z,21.47
2019-04-20T21:13:25.908Z,31.57
2019-04-20T21:16:31.859Z,37.20
2019-04-20T21:19:50.756Z,38.40
2019-04-20T21:22:50.281Z,37.97
2019-04-20T21:25:47.614Z,38.80
2019-04-20T21:28:44.238Z,34.83
2019-04-20T21:31:54.486Z,33.37
2019-04-20T21:34:35.624Z,42.37
2019-04-20T21:37:52.562Z,30.43
2019-04-20T21:40:40.135Z,50.37
2019-04-20T21:43:45.034Z,47.40
2019-04-20T21:46:54.970Z,40.80
2019-04-20T21:50:21.499Z,28.50
2019-04-20T21:53:18.289Z,28.37
2019-04-20T21:56:23.871Z,27.83
2019-04-20T21:59:40.962Z,28.90
2019-04-20T22:06:10.803Z,31.43
2019-04-20T22:09:20.429Z,29.87
2019-04-20T22:12:41.953Z,32.20
2019-04-20T22:15:46.608Z,44.33
2019-04-20T22:18:58.136Z,32.90
2019-04-20T22:22:04.205Z,28.97
2019-04-20T22:25:06.323Z,31.27
2019-04-20T22:27:46.359Z,30.77
2019-04-20T22:30:55.808Z,25.87
2019-04-20T22:41:03.847Z,34.13
2019-04-20T22:47:35.680Z,26.80
2019-04-20T22:51:01.653Z,27.87
2019-04-20T22:54:10.945Z,28.43
2019-04-20T22:57:13.061Z,24.27
2019-04-20T23:03:28.498Z,30.17
2019-04-20T23:06:41.961Z,27.57
2019-04-20T23:09:52.887Z,24.40
2019-04-20T23:12:59.165Z,23.90
2019-04-20T23:16:07.412Z,24.67
2019-04-20T23:19:27.286Z,20.90
2019-04-20T23:22:19.215Z,27.37
2019-04-20T23:25:20.961Z,18.80
2019-04-20T23:28:23.051Z,20.97
2019-04-20T23:31:26.754Z,19.53
2019-04-20T23:34:30.430Z,19.07
2019-04-20T23:37:32.961Z,22.63
2019-04-20T23:40:31.966Z,20.90
2019-04-20T23:47:22.335Z,24.70
2019-04-20T23:50:41.072Z,44.13
2019-04-20T23:53:41.217Z,22.07
2019-04-20T23:56:29.869Z,18.47
2019-04-20T23:59:37.554Z,16.63
